sensor_id;sensor_type;location;lat;lon;timestamp;P1;durP1;ratioP1;P2;durP2;ratioP2
60306;SDS011;46155;52.364;6.580;2022-09-09T03:01:03;21.23;;;20.00;;
60306;SDS011;46155;52.364;6.580;2022-09-09T03:03:29;19.83;;;18.43;;
60306;SDS011;46155;52.364;6.580;2022-09-09T03:05:55;20.63;;;19.10;;
60306;SDS011;46155;52.364;6.580;2022-09-09T03:08:21;20.13;;;18.90;;
60306;SDS011;46155;52.364;6.580;2022-09-09T03:10:47;21.63;;;19.90;;
60306;SDS011;46155;52.364;6.580;2022-09-09T03:13:12;20.20;;;18.80;;
60306;SDS011;46155;52.364;6.580;2022-09-09T03:15:38;20.30;;;19.00;;
60306;SDS011;46155;52.364;6.580;2022-09-09T03:18:03;19.60;;;18.40;;
60306;SDS011;46155;52.364;6.580;2022-09-09T03:20:28;19.37;;;18.17;;
60306;SDS011;46155;52.364;6.580;2022-09-09T03:22:55;20.90;;;19.50;;
60306;SDS011;46155;52.364;6.580;2022-09-09T03:25:21;18.97;;;17.70;;
60306;SDS011;46155;52.364;6.580;2022-09-09T03:27:50;19.30;;;18.20;;
60306;SDS011;46155;52.364;6.580;2022-09-09T03:30:19;20.47;;;19.17;;
60306;SDS011;46155;52.364;6.580;2022-09-09T03:32:48;21.33;;;20.03;;
60306;SDS011;46155;52.364;6.580;2022-09-09T03:35:13;19.07;;;17.77;;
60306;SDS011;46155;52.364;6.580;2022-09-09T03:37:40;19.67;;;18.47;;
60306;SDS011;46155;52.364;6.580;2022-09-09T03:40:06;19.57;;;18.37;;
60306;SDS011;46155;52.364;6.580;2022-09-09T03:42:34;19.97;;;18.57;;
60306;SDS011;46155;52.364;6.580;2022-09-09T03:45:01;19.30;;;17.93;;
60306;SDS011;46155;52.364;6.580;2022-09-09T03:47:28;20.00;;;18.80;;
60306;SDS011;46155;52.364;6.580;2022-09-09T03:49:54;19.63;;;18.53;;
60306;SDS011;46155;52.364;6.580;2022-09-09T03:52:19;22.00;;;20.63;;
60306;SDS011;46155;52.364;6.580;2022-09-09T03:54:46;21.27;;;20.00;;
60306;SDS011;46155;52.364;6.580;2022-09-09T03:57:12;20.60;;;19.37;;
60306;SDS011;46155;52.364;6.580;2022-09-09T03:59:38;21.03;;;19.90;;
60306;SDS011;46155;52.364;6.580;2022-09-09T04:02:04;22.93;;;21.17;;
60306;SDS011;46155;52.364;6.580;2022-09-09T04:04:29;22.77;;;21.37;;
60306;SDS011;46155;52.364;6.580;2022-09-09T04:06:55;21.23;;;19.93;;
60306;SDS011;46155;52.364;6.580;2022-09-09T04:09:20;21.03;;;19.83;;
60306;SDS011;46155;52.364;6.580;2022-09-09T04:11:45;18.50;;;17.40;;
60306;SDS011;46155;52.364;6.580;2022-09-09T04:14:11;20.30;;;19.10;;
60306;SDS011;46155;52.364;6.580;2022-09-09T04:16:37;20.53;;;18.80;;
60306;SDS011;46155;52.364;6.580;2022-09-09T04:19:03;21.17;;;19.87;;
60306;SDS011;46155;52.364;6.580;2022-09-09T04:21:31;23.00;;;21.07;;
60306;SDS011;46155;52.364;6.580;2022-09-09T04:23:56;21.83;;;20.33;;
60306;SDS011;46155;52.364;6.580;2022-09-09T04:26:22;22.20;;;20.57;;
60306;SDS011;46155;52.364;6.580;2022-09-09T04:28:47;22.27;;;20.57;;
60306;SDS011;46155;52.364;6.580;2022-09-09T04:31:17;24.37;;;22.87;;
60306;SDS011;46155;52.364;6.580;2022-09-09T04:33:45;22.37;;;20.97;;
60306;SDS011;46155;52.364;6.580;2022-09-09T04:36:11;23.57;;;21.97;;
60306;SDS011;46155;52.364;6.580;2022-09-09T04:38:37;25.33;;;23.80;;
60306;SDS011;46155;52.364;6.580;2022-09-09T04:41:03;23.43;;;21.83;;
60306;SDS011;46155;52.364;6.580;2022-09-09T04:43:29;21.40;;;20.20;;
60306;SDS011;46155;52.364;6.580;2022-09-09T04:45:55;22.93;;;21.53;;
60306;SDS011;46155;52.364;6.580;2022-09-09T04:48:21;22.80;;;21.40;;
60306;SDS011;46155;52.364;6.580;2022-09-09T04:51:00;22.53;;;21.13;;
60306;SDS011;46155;52.364;6.580;2022-09-09T04:53:27;22.93;;;21.47;;
60306;SDS011;46155;52.364;6.580;2022-09-09T04:56:00;21.30;;;19.93;;
60306;SDS011;46155;52.364;6.580;2022-09-09T04:58:29;19.07;;;17.97;;
60306;SDS011;46155;52.364;6.580;2022-09-09T05:01:01;17.00;;;16.00;;
60306;SDS011;46155;52.364;6.580;2022-09-09T05:03:34;16.07;;;14.90;;
60306;SDS011;46155;52.364;6.580;2022-09-09T05:06:07;16.10;;;14.80;;
60306;SDS011;46155;52.364;6.580;2022-09-09T05:08:35;15.50;;;14.50;;
60306;SDS011;46155;52.364;6.580;2022-09-09T05:11:02;17.13;;;16.03;;
60306;SDS011;46155;52.364;6.580;2022-09-09T05:13:28;17.73;;;16.53;;
60306;SDS011;46155;52.364;6.580;2022-09-09T05:15:54;16.90;;;15.83;;
60306;SDS011;46155;52.364;6.580;2022-09-09T05:18:19;16.67;;;15.00;;
60306;SDS011;46155;52.364;6.580;2022-09-09T05:20:45;15.07;;;13.83;;
60306;SDS011;46155;52.364;6.580;2022-09-09T05:23:10;15.50;;;14.57;;
60306;SDS011;46155;52.364;6.580;2022-09-09T05:25:38;16.63;;;15.53;;
60306;SDS011;46155;52.364;6.580;2022-09-09T05:28:03;16.00;;;14.90;;
60306;SDS011;46155;52.364;6.580;2022-09-09T05:30:28;16.37;;;15.03;;
60306;SDS011;46155;52.364;6.580;2022-09-09T05:32:57;15.37;;;14.47;;
60306;SDS011;46155;52.364;6.580;2022-09-09T05:35:22;15.47;;;14.47;;
60306;SDS011;46155;52.364;6.580;2022-09-09T05:37:48;16.77;;;15.77;;
60306;SDS011;46155;52.364;6.580;2022-09-09T05:40:13;15.67;;;14.73;;
60306;SDS011;46155;52.364;6.580;2022-09-09T05:42:39;17.27;;;15.70;;
60306;SDS011;46155;52.364;6.580;2022-09-09T05:45:05;17.03;;;15.63;;
60306;SDS011;46155;52.364;6.580;2022-09-09T05:47:32;13.63;;;12.83;;
60306;SDS011;46155;52.364;6.580;2022-09-09T05:49:58;16.23;;;15.03;;
60306;SDS011;46155;52.364;6.580;2022-09-09T05:52:23;16.97;;;15.03;;
60306;SDS011;46155;52.364;6.580;2022-09-09T05:54:50;15.00;;;14.00;;
60306;SDS011;46155;52.364;6.580;2022-09-09T05:57:15;16.03;;;14.80;;
60306;SDS011;46155;52.364;6.580;2022-09-09T05:59:41;15.70;;;14.80;;
60306;SDS011;46155;52.364;6.580;2022-09-09T06:02:07;15.77;;;14.87;;
60306;SDS011;46155;52.364;6.580;2022-09-09T06:04:33;16.33;;;15.30;;
60306;SDS011;46155;52.364;6.580;2022-09-09T06:06:58;16.00;;;14.10;;
60306;SDS011;46155;52.364;6.580;2022-09-09T06:09:24;16.47;;;15.37;;
60306;SDS011;46155;52.364;6.580;2022-09-09T06:11:49;15.73;;;14.53;;
60306;SDS011;46155;52.364;6.580;2022-09-09T06:14:14;16.40;;;14.97;;
60306;SDS011;46155;52.364;6.580;2022-09-09T06:16:40;17.70;;;16.40;;
60306;SDS011;46155;52.364;6.580;2022-09-09T06:19:08;16.50;;;15.30;;
60306;SDS011;46155;52.364;6.580;2022-09-09T06:21:34;16.27;;;15.17;;
60306;SDS011;46155;52.364;6.580;2022-09-09T06:24:03;18.93;;;16.47;;
60306;SDS011;46155;52.364;6.580;2022-09-09T06:26:31;17.17;;;15.83;;
60306;SDS011;46155;52.364;6.580;2022-09-09T06:29:00;15.33;;;14.17;;
60306;SDS011;46155;52.364;6.580;2022-09-09T06:31:28;16.23;;;14.97;;
60306;SDS011;46155;52.364;6.580;2022-09-09T06:33:55;15.47;;;14.37;;
60306;SDS011;46155;52.364;6.580;2022-09-09T06:36:22;15.20;;;14.23;;
60306;SDS011;46155;52.364;6.580;2022-09-09T06:38:52;15.10;;;13.97;;
60306;SDS011;46155;52.364;6.580;2022-09-09T06:41:18;15.30;;;14.17;;
60306;SDS011;46155;52.364;6.580;2022-09-09T06:43:45;14.87;;;13.83;;
60306;SDS011;46155;52.364;6.580;2022-09-09T06:46:12;15.03;;;13.97;;
60306;SDS011;46155;52.364;6.580;2022-09-09T06:48:40;15.93;;;14.60;;
60306;SDS011;46155;52.364;6.580;2022-09-09T06:51:13;15.33;;;14.17;;
60306;SDS011;46155;52.364;6.580;2022-09-09T06:53:39;15.20;;;14.00;;
60306;SDS011;46155;52.364;6.580;2022-09-09T06:56:22;15.93;;;14.93;;
60306;SDS011;46155;52.364;6.580;2022-09-09T06:58:53;14.33;;;13.23;;
60306;SDS011;46155;52.364;6.580;2022-09-09T07:01:20;15.63;;;14.00;;
60306;SDS011;46155;52.364;6.580;2022-09-09T07:03:49;13.40;;;12.33;;
60306;SDS011;46155;52.364;6.580;2022-09-09T07:06:20;11.57;;;10.73;;
60306;SDS011;46155;52.364;6.580;2022-09-09T07:08:56;11.97;;;11.13;;
60306;SDS011;46155;52.364;6.580;2022-09-09T07:11:27;11.40;;;10.60;;
60306;SDS011;46155;52.364;6.580;2022-09-09T07:13:54;11.47;;;10.53;;
60306;SDS011;46155;52.364;6.580;2022-09-09T07:16:20;11.30;;;10.50;;
60306;SDS011;46155;52.364;6.580;2022-09-09T07:18:49;12.20;;;11.20;;
60306;SDS011;46155;52.364;6.580;2022-09-09T07:21:15;13.67;;;11.20;;
60306;SDS011;46155;52.364;6.580;2022-09-09T07:23:42;11.77;;;10.97;;
60306;SDS011;46155;52.364;6.580;2022-09-09T07:26:17;11.50;;;10.70;;
60306;SDS011;46155;52.364;6.580;2022-09-09T07:28:47;12.07;;;10.57;;
60306;SDS011;46155;52.364;6.580;2022-09-09T07:31:14;11.53;;;10.33;;
60306;SDS011;46155;52.364;6.580;2022-09-09T07:33:45;12.40;;;9.77;;
60306;SDS011;46155;52.364;6.580;2022-09-09T07:36:22;11.37;;;10.60;;
60306;SDS011;46155;52.364;6.580;2022-09-09T07:38:49;12.43;;;11.13;;
60306;SDS011;46155;52.364;6.580;2022-09-09T07:41:19;9.07;;;8.47;;
60306;SDS011;46155;52.364;6.580;2022-09-09T07:43:45;12.60;;;9.63;;
60306;SDS011;46155;52.364;6.580;2022-09-09T07:46:13;9.50;;;8.90;;
60306;SDS011;46155;52.364;6.580;2022-09-09T07:48:46;8.83;;;8.00;;
60306;SDS011;46155;52.364;6.580;2022-09-09T07:51:16;11.17;;;8.27;;
60306;SDS011;46155;52.364;6.580;2022-09-09T07:53:44;9.37;;;8.57;;
60306;SDS011;46155;52.364;6.580;2022-09-09T07:56:12;8.10;;;7.57;;
60306;SDS011;46155;52.364;6.580;2022-09-09T07:58:39;11.27;;;8.00;;
60306;SDS011;46155;52.364;6.580;2022-09-09T08:01:06;14.13;;;6.97;;
60306;SDS011;46155;52.364;6.580;2022-09-09T08:03:37;13.27;;;7.30;;
60306;SDS011;46155;52.364;6.580;2022-09-09T08:06:07;8.17;;;7.67;;
60306;SDS011;46155;52.364;6.580;2022-09-09T08:08:34;8.07;;;7.17;;
60306;SDS011;46155;52.364;6.580;2022-09-09T08:11:19;7.77;;;7.10;;
60306;SDS011;46155;52.364;6.580;2022-09-09T08:13:44;8.13;;;7.53;;
60306;SDS011;46155;52.364;6.580;2022-09-09T08:16:11;7.00;;;6.50;;
60306;SDS011;46155;52.364;6.580;2022-09-09T08:18:38;9.27;;;7.30;;
60306;SDS011;46155;52.364;6.580;2022-09-09T08:21:14;9.47;;;7.20;;
60306;SDS011;46155;52.364;6.580;2022-09-09T08:23:43;7.67;;;7.10;;
60306;SDS011;46155;52.364;6.580;2022-09-09T08:26:15;11.70;;;7.67;;
60306;SDS011;46155;52.364;6.580;2022-09-09T08:28:47;8.80;;;8.00;;
60306;SDS011;46155;52.364;6.580;2022-09-09T08:31:17;7.50;;;6.97;;
60306;SDS011;46155;52.364;6.580;2022-09-09T08:33:47;8.70;;;7.17;;
60306;SDS011;46155;52.364;6.580;2022-09-09T08:36:14;12.87;;;7.03;;
60306;SDS011;46155;52.364;6.580;2022-09-09T08:38:41;7.10;;;6.50;;
60306;SDS011;46155;52.364;6.580;2022-09-09T08:43:35;7.33;;;6.70;;
60306;SDS011;46155;52.364;6.580;2022-09-09T08:46:11;7.80;;;7.10;;
60306;SDS011;46155;52.364;6.580;2022-09-09T08:48:57;7.47;;;6.87;;
60306;SDS011;46155;52.364;6.580;2022-09-09T08:51:27;11.93;;;6.97;;
60306;SDS011;46155;52.364;6.580;2022-09-09T08:53:55;11.73;;;7.00;;
60306;SDS011;46155;52.364;6.580;2022-09-09T08:56:25;7.97;;;7.30;;
60306;SDS011;46155;52.364;6.580;2022-09-09T08:58:54;10.20;;;6.00;;
60306;SDS011;46155;52.364;6.580;2022-09-09T09:09:31;7.40;;;6.80;;
60306;SDS011;46155;52.364;6.580;2022-09-09T09:12:13;7.00;;;6.40;;
60306;SDS011;46155;52.364;6.580;2022-09-09T09:14:43;7.23;;;6.63;;
60306;SDS011;46155;52.364;6.580;2022-09-09T09:17:18;9.97;;;6.07;;
60306;SDS011;46155;52.364;6.580;2022-09-09T09:19:45;8.50;;;6.67;;
60306;SDS011;46155;52.364;6.580;2022-09-09T09:22:19;6.37;;;6.00;;
60306;SDS011;46155;52.364;6.580;2022-09-09T09:27:31;6.73;;;6.20;;
60306;SDS011;46155;52.364;6.580;2022-09-09T09:30:00;10.53;;;6.47;;
60306;SDS011;46155;52.364;6.580;2022-09-09T09:32:54;7.87;;;6.77;;
60306;SDS011;46155;52.364;6.580;2022-09-09T09:35:40;8.53;;;6.50;;
60306;SDS011;46155;52.364;6.580;2022-09-09T09:38:18;7.43;;;6.20;;
60306;SDS011;46155;52.364;6.580;2022-09-09T09:41:05;7.70;;;6.47;;
60306;SDS011;46155;52.364;6.580;2022-09-09T09:43:34;8.63;;;6.67;;
60306;SDS011;46155;52.364;6.580;2022-09-09T09:46:03;6.87;;;6.20;;
60306;SDS011;46155;52.364;6.580;2022-09-09T09:48:29;7.80;;;6.37;;
60306;SDS011;46155;52.364;6.580;2022-09-09T09:50:59;6.30;;;5.77;;
60306;SDS011;46155;52.364;6.580;2022-09-09T09:58:27;6.97;;;6.20;;
60306;SDS011;46155;52.364;6.580;2022-09-09T10:00:56;10.90;;;6.67;;
60306;SDS011;46155;52.364;6.580;2022-09-09T10:03:27;5.93;;;5.60;;
60306;SDS011;46155;52.364;6.580;2022-09-09T10:05:54;6.73;;;6.00;;
60306;SDS011;46155;52.364;6.580;2022-09-09T10:08:21;8.90;;;5.60;;
60306;SDS011;46155;52.364;6.580;2022-09-09T10:14:00;6.20;;;5.73;;
60306;SDS011;46155;52.364;6.580;2022-09-09T10:16:47;6.67;;;5.93;;
60306;SDS011;46155;52.364;6.580;2022-09-09T10:19:41;7.37;;;5.60;;
60306;SDS011;46155;52.364;6.580;2022-09-09T10:22:24;6.00;;;5.70;;
60306;SDS011;46155;52.364;6.580;2022-09-09T10:27:41;6.63;;;6.13;;
60306;SDS011;46155;52.364;6.580;2022-09-09T10:30:18;7.27;;;6.40;;
60306;SDS011;46155;52.364;6.580;2022-09-09T10:36:10;10.37;;;6.10;;
60306;SDS011;46155;52.364;6.580;2022-09-09T10:38:42;6.17;;;5.67;;
60306;SDS011;46155;52.364;6.580;2022-09-09T10:55:02;10.00;;;6.40;;
60306;SDS011;46155;52.364;6.580;2022-09-09T10:57:39;6.13;;;5.73;;
60306;SDS011;46155;52.364;6.580;2022-09-09T11:00:18;8.73;;;6.30;;
60306;SDS011;46155;52.364;6.580;2022-09-09T11:02:49;6.37;;;5.80;;
60306;SDS011;46155;52.364;6.580;2022-09-09T11:05:36;10.33;;;5.73;;
60306;SDS011;46155;52.364;6.580;2022-09-09T11:13:31;6.50;;;6.00;;
60306;SDS011;46155;52.364;6.580;2022-09-09T11:16:05;8.47;;;5.47;;
60306;SDS011;46155;52.364;6.580;2022-09-09T11:19:11;6.10;;;5.60;;
60306;SDS011;46155;52.364;6.580;2022-09-09T11:21:42;7.17;;;5.23;;
60306;SDS011;46155;52.364;6.580;2022-09-09T11:24:14;5.80;;;5.50;;
60306;SDS011;46155;52.364;6.580;2022-09-09T11:26:51;6.33;;;5.60;;
60306;SDS011;46155;52.364;6.580;2022-09-09T11:40:55;6.47;;;5.87;;
60306;SDS011;46155;52.364;6.580;2022-09-09T11:43:25;7.40;;;5.80;;
60306;SDS011;46155;52.364;6.580;2022-09-09T11:45:55;6.93;;;4.97;;
60306;SDS011;46155;52.364;6.580;2022-09-09T11:48:32;6.03;;;5.47;;
60306;SDS011;46155;52.364;6.580;2022-09-09T11:51:09;7.57;;;5.80;;
60306;SDS011;46155;52.364;6.580;2022-09-09T11:53:51;6.07;;;5.57;;
60306;SDS011;46155;52.364;6.580;2022-09-09T11:56:42;7.60;;;5.53;;
60306;SDS011;46155;52.364;6.580;2022-09-09T11:59:29;5.87;;;5.37;;
60306;SDS011;46155;52.364;6.580;2022-09-09T12:02:16;6.13;;;4.47;;
60306;SDS011;46155;52.364;6.580;2022-09-09T12:05:07;5.47;;;4.97;;
60306;SDS011;46155;52.364;6.580;2022-09-09T12:10:23;5.97;;;5.60;;
60306;SDS011;46155;52.364;6.580;2022-09-09T12:12:52;5.00;;;4.60;;
60306;SDS011;46155;52.364;6.580;2022-09-09T12:15:20;6.47;;;5.97;;
60306;SDS011;46155;52.364;6.580;2022-09-09T12:17:49;5.97;;;5.57;;
60306;SDS011;46155;52.364;6.580;2022-09-09T12:28:48;5.60;;;5.20;;
60306;SDS011;46155;52.364;6.580;2022-09-09T12:31:29;5.63;;;5.30;;
60306;SDS011;46155;52.364;6.580;2022-09-09T12:34:48;6.40;;;5.10;;
60306;SDS011;46155;52.364;6.580;2022-09-09T12:36:48;5.23;;;4.83;;
60306;SDS011;46155;52.364;6.580;2022-09-09T12:39:31;5.17;;;4.73;;
60306;SDS011;46155;52.364;6.580;2022-09-09T12:42:02;5.13;;;4.83;;
60306;SDS011;46155;52.364;6.580;2022-09-09T12:44:29;5.20;;;5.00;;
60306;SDS011;46155;52.364;6.580;2022-09-09T12:46:55;5.20;;;4.80;;
60306;SDS011;46155;52.364;6.580;2022-09-09T12:54:55;6.33;;;5.50;;
60306;SDS011;46155;52.364;6.580;2022-09-09T12:57:22;6.00;;;5.60;;
60306;SDS011;46155;52.364;6.580;2022-09-09T12:59:50;5.73;;;5.23;;
60306;SDS011;46155;52.364;6.580;2022-09-09T13:02:18;6.33;;;5.90;;
60306;SDS011;46155;52.364;6.580;2022-09-09T13:04:45;7.60;;;6.97;;
60306;SDS011;46155;52.364;6.580;2022-09-09T13:07:12;11.07;;;8.00;;
60306;SDS011;46155;52.364;6.580;2022-09-09T13:09:38;9.20;;;8.30;;
60306;SDS011;46155;52.364;6.580;2022-09-09T13:12:04;17.37;;;10.87;;
60306;SDS011;46155;52.364;6.580;2022-09-09T13:14:37;11.53;;;10.50;;
60306;SDS011;46155;52.364;6.580;2022-09-09T13:17:04;11.50;;;10.90;;
60306;SDS011;46155;52.364;6.580;2022-09-09T13:19:32;11.53;;;10.57;;
60306;SDS011;46155;52.364;6.580;2022-09-09T13:22:11;11.53;;;10.83;;
60306;SDS011;46155;52.364;6.580;2022-09-09T13:24:38;13.47;;;12.37;;
60306;SDS011;46155;52.364;6.580;2022-09-09T13:27:05;12.10;;;11.10;;
60306;SDS011;46155;52.364;6.580;2022-09-09T13:29:52;13.17;;;11.97;;
60306;SDS011;46155;52.364;6.580;2022-09-09T13:32:20;14.53;;;13.70;;
60306;SDS011;46155;52.364;6.580;2022-09-09T13:34:52;15.57;;;14.57;;
60306;SDS011;46155;52.364;6.580;2022-09-09T13:37:33;16.30;;;15.20;;
60306;SDS011;46155;52.364;6.580;2022-09-09T13:40:01;15.97;;;14.97;;
60306;SDS011;46155;52.364;6.580;2022-09-09T13:42:30;14.87;;;13.53;;
60306;SDS011;46155;52.364;6.580;2022-09-09T13:45:00;14.43;;;13.53;;
60306;SDS011;46155;52.364;6.580;2022-09-09T13:47:30;13.70;;;12.90;;
60306;SDS011;46155;52.364;6.580;2022-09-09T13:49:57;13.93;;;12.73;;
60306;SDS011;46155;52.364;6.580;2022-09-09T13:52:23;13.87;;;12.97;;
60306;SDS011;46155;52.364;6.580;2022-09-09T13:54:51;12.83;;;11.73;;
60306;SDS011;46155;52.364;6.580;2022-09-09T13:57:24;12.50;;;11.90;;
60306;SDS011;46155;52.364;6.580;2022-09-09T13:59:51;10.57;;;10.07;;
60306;SDS011;46155;52.364;6.580;2022-09-09T14:02:22;11.23;;;10.63;;
60306;SDS011;46155;52.364;6.580;2022-09-09T14:04:48;9.70;;;9.00;;
60306;SDS011;46155;52.364;6.580;2022-09-09T14:07:15;11.10;;;10.50;;
60306;SDS011;46155;52.364;6.580;2022-09-09T14:09:43;10.00;;;9.20;;
60306;SDS011;46155;52.364;6.580;2022-09-09T14:12:10;9.53;;;8.83;;
60306;SDS011;46155;52.364;6.580;2022-09-09T14:14:36;9.80;;;9.10;;
60306;SDS011;46155;52.364;6.580;2022-09-09T14:17:01;9.17;;;8.50;;
60306;SDS011;46155;52.364;6.580;2022-09-09T14:19:28;8.53;;;8.03;;
60306;SDS011;46155;52.364;6.580;2022-09-09T14:21:53;9.43;;;8.50;;
60306;SDS011;46155;52.364;6.580;2022-09-09T14:24:19;9.13;;;8.63;;
60306;SDS011;46155;52.364;6.580;2022-09-09T14:26:44;10.57;;;9.83;;
60306;SDS011;46155;52.364;6.580;2022-09-09T14:29:10;8.93;;;8.10;;
60306;SDS011;46155;52.364;6.580;2022-09-09T14:31:35;9.30;;;8.50;;
60306;SDS011;46155;52.364;6.580;2022-09-09T14:34:00;9.10;;;8.50;;
60306;SDS011;46155;52.364;6.580;2022-09-09T14:36:26;9.63;;;9.13;;
60306;SDS011;46155;52.364;6.580;2022-09-09T14:38:51;10.20;;;9.33;;
60306;SDS011;46155;52.364;6.580;2022-09-09T14:41:17;8.20;;;7.70;;
60306;SDS011;46155;52.364;6.580;2022-09-09T14:43:44;10.40;;;8.80;;
60306;SDS011;46155;52.364;6.580;2022-09-09T14:46:11;10.17;;;9.23;;
60306;SDS011;46155;52.364;6.580;2022-09-09T14:48:41;9.53;;;8.83;;
60306;SDS011;46155;52.364;6.580;2022-09-09T14:53:36;9.13;;;8.50;;
60306;SDS011;46155;52.364;6.580;2022-09-09T14:56:03;14.33;;;9.13;;
60306;SDS011;46155;52.364;6.580;2022-09-09T14:58:33;10.50;;;9.50;;
60306;SDS011;46155;52.364;6.580;2022-09-09T15:01:06;10.13;;;9.30;;
60306;SDS011;46155;52.364;6.580;2022-09-09T15:03:34;9.50;;;8.90;;
60306;SDS011;46155;52.364;6.580;2022-09-09T15:06:04;9.50;;;8.73;;
60306;SDS011;46155;52.364;6.580;2022-09-09T15:08:30;9.40;;;8.73;;
60306;SDS011;46155;52.364;6.580;2022-09-09T15:11:01;11.53;;;8.73;;
60306;SDS011;46155;52.364;6.580;2022-09-09T15:13:27;9.00;;;8.30;;
60306;SDS011;46155;52.364;6.580;2022-09-09T15:15:53;9.73;;;8.73;;
60306;SDS011;46155;52.364;6.580;2022-09-09T15:18:19;8.53;;;8.03;;
60306;SDS011;46155;52.364;6.580;2022-09-09T15:20:45;7.87;;;7.17;;
60306;SDS011;46155;52.364;6.580;2022-09-09T15:23:11;7.20;;;6.70;;
60306;SDS011;46155;52.364;6.580;2022-09-09T15:25:37;8.53;;;7.73;;
60306;SDS011;46155;52.364;6.580;2022-09-09T15:28:02;7.70;;;7.07;;
60306;SDS011;46155;52.364;6.580;2022-09-09T15:30:28;9.47;;;8.67;;
60306;SDS011;46155;52.364;6.580;2022-09-09T15:32:53;9.70;;;8.83;;
60306;SDS011;46155;52.364;6.580;2022-09-09T15:35:19;10.27;;;9.47;;
60306;SDS011;46155;52.364;6.580;2022-09-09T15:37:45;9.33;;;8.83;;
60306;SDS011;46155;52.364;6.580;2022-09-09T15:40:10;10.67;;;10.07;;
60306;SDS011;46155;52.364;6.580;2022-09-09T15:42:35;9.60;;;8.87;;
60306;SDS011;46155;52.364;6.580;2022-09-09T15:45:01;9.43;;;8.73;;
60306;SDS011;46155;52.364;6.580;2022-09-09T15:47:26;8.77;;;8.03;;
60306;SDS011;46155;52.364;6.580;2022-09-09T15:49:52;7.77;;;7.23;;
60306;SDS011;46155;52.364;6.580;2022-09-09T15:52:17;7.63;;;7.23;;
60306;SDS011;46155;52.364;6.580;2022-09-09T15:54:43;9.17;;;8.23;;
60306;SDS011;46155;52.364;6.580;2022-09-09T15:57:10;11.23;;;7.93;;
60306;SDS011;46155;52.364;6.580;2022-09-09T15:59:37;10.73;;;8.77;;
60306;SDS011;46155;52.364;6.580;2022-09-09T16:02:02;9.20;;;8.40;;
60306;SDS011;46155;52.364;6.580;2022-09-09T16:04:28;9.20;;;8.40;;
60306;SDS011;46155;52.364;6.580;2022-09-09T16:07:12;8.77;;;7.97;;
60306;SDS011;46155;52.364;6.580;2022-09-09T16:09:38;8.93;;;8.23;;
60306;SDS011;46155;52.364;6.580;2022-09-09T16:12:04;8.57;;;7.97;;
60306;SDS011;46155;52.364;6.580;2022-09-09T16:14:34;9.03;;;8.40;;
60306;SDS011;46155;52.364;6.580;2022-09-09T16:17:01;8.23;;;7.50;;
60306;SDS011;46155;52.364;6.580;2022-09-09T16:19:27;7.87;;;7.33;;
60306;SDS011;46155;52.364;6.580;2022-09-09T16:21:53;8.43;;;8.00;;
60306;SDS011;46155;52.364;6.580;2022-09-09T16:24:18;9.03;;;8.10;;
60306;SDS011;46155;52.364;6.580;2022-09-09T16:26:46;9.13;;;8.20;;
60306;SDS011;46155;52.364;6.580;2022-09-09T16:29:14;8.80;;;8.30;;
60306;SDS011;46155;52.364;6.580;2022-09-09T16:31:40;10.23;;;7.30;;
60306;SDS011;46155;52.364;6.580;2022-09-09T16:34:09;7.50;;;7.07;;
60306;SDS011;46155;52.364;6.580;2022-09-09T16:36:35;9.00;;;8.13;;
60306;SDS011;46155;52.364;6.580;2022-09-09T16:39:04;8.33;;;7.73;;
60306;SDS011;46155;52.364;6.580;2022-09-09T16:41:31;8.00;;;7.30;;
60306;SDS011;46155;52.364;6.580;2022-09-09T16:43:58;8.67;;;8.17;;
60306;SDS011;46155;52.364;6.580;2022-09-09T16:46:25;8.07;;;7.40;;
60306;SDS011;46155;52.364;6.580;2022-09-09T16:48:53;8.43;;;7.83;;
60306;SDS011;46155;52.364;6.580;2022-09-09T16:51:21;9.23;;;8.33;;
60306;SDS011;46155;52.364;6.580;2022-09-09T16:53:52;9.03;;;8.23;;
60306;SDS011;46155;52.364;6.580;2022-09-09T16:56:21;9.33;;;8.53;;
60306;SDS011;46155;52.364;6.580;2022-09-09T16:58:53;9.77;;;8.87;;
60306;SDS011;46155;52.364;6.580;2022-09-09T17:01:21;9.10;;;8.50;;
60306;SDS011;46155;52.364;6.580;2022-09-09T17:03:47;8.97;;;8.23;;
60306;SDS011;46155;52.364;6.580;2022-09-09T17:06:12;9.10;;;8.47;;
60306;SDS011;46155;52.364;6.580;2022-09-09T17:08:40;8.83;;;8.27;;
60306;SDS011;46155;52.364;6.580;2022-09-09T17:11:15;11.57;;;9.33;;
60306;SDS011;46155;52.364;6.580;2022-09-09T17:13:43;10.53;;;9.60;;
60306;SDS011;46155;52.364;6.580;2022-09-09T17:16:09;10.30;;;9.70;;
60306;SDS011;46155;52.364;6.580;2022-09-09T17:18:35;11.00;;;10.13;;
60306;SDS011;46155;52.364;6.580;2022-09-09T17:21:05;9.37;;;8.77;;
60306;SDS011;46155;52.364;6.580;2022-09-09T17:23:33;10.60;;;9.60;;
60306;SDS011;46155;52.364;6.580;2022-09-09T17:25:59;10.13;;;9.33;;
60306;SDS011;46155;52.364;6.580;2022-09-09T17:28:25;9.80;;;9.30;;
60306;SDS011;46155;52.364;6.580;2022-09-09T17:30:56;10.00;;;9.30;;
60306;SDS011;46155;52.364;6.580;2022-09-09T17:33:25;11.10;;;10.07;;
60306;SDS011;46155;52.364;6.580;2022-09-09T17:35:51;10.17;;;9.27;;
60306;SDS011;46155;52.364;6.580;2022-09-09T17:38:16;10.27;;;9.60;;
60306;SDS011;46155;52.364;6.580;2022-09-09T17:40:42;10.70;;;9.90;;
60306;SDS011;46155;52.364;6.580;2022-09-09T17:43:07;10.40;;;9.70;;
60306;SDS011;46155;52.364;6.580;2022-09-09T17:45:34;10.90;;;10.20;;
60306;SDS011;46155;52.364;6.580;2022-09-09T17:47:59;11.40;;;10.80;;
60306;SDS011;46155;52.364;6.580;2022-09-09T17:50:25;12.93;;;12.13;;
60306;SDS011;46155;52.364;6.580;2022-09-09T17:52:50;14.23;;;13.00;;
60306;SDS011;46155;52.364;6.580;2022-09-09T17:55:15;15.40;;;14.37;;
60306;SDS011;46155;52.364;6.580;2022-09-09T17:57:42;16.03;;;14.93;;
60306;SDS011;46155;52.364;6.580;2022-09-09T18:00:08;17.93;;;16.37;;
60306;SDS011;46155;52.364;6.580;2022-09-09T18:02:33;17.27;;;16.17;;
60306;SDS011;46155;52.364;6.580;2022-09-09T18:04:59;12.87;;;11.87;;
60306;SDS011;46155;52.364;6.580;2022-09-09T18:07:26;14.83;;;13.93;;
60306;SDS011;46155;52.364;6.580;2022-09-09T18:09:51;15.70;;;14.43;;
60306;SDS011;46155;52.364;6.580;2022-09-09T18:12:17;16.50;;;15.43;;
60306;SDS011;46155;52.364;6.580;2022-09-09T18:14:42;17.90;;;16.40;;
60306;SDS011;46155;52.364;6.580;2022-09-09T18:17:07;17.80;;;16.70;;
60306;SDS011;46155;52.364;6.580;2022-09-09T18:19:33;17.73;;;16.53;;
60306;SDS011;46155;52.364;6.580;2022-09-09T18:21:59;17.97;;;16.87;;
60306;SDS011;46155;52.364;6.580;2022-09-09T18:24:27;19.50;;;18.23;;
60306;SDS011;46155;52.364;6.580;2022-09-09T18:26:52;19.60;;;18.27;;
60306;SDS011;46155;52.364;6.580;2022-09-09T18:29:20;19.90;;;18.57;;
60306;SDS011;46155;52.364;6.580;2022-09-09T18:31:48;20.47;;;19.23;;
60306;SDS011;46155;52.364;6.580;2022-09-09T18:34:16;19.07;;;17.97;;
60306;SDS011;46155;52.364;6.580;2022-09-09T18:36:43;20.17;;;18.77;;
60306;SDS011;46155;52.364;6.580;2022-09-09T18:39:11;21.47;;;19.67;;
60306;SDS011;46155;52.364;6.580;2022-09-09T18:41:39;19.23;;;18.17;;
60306;SDS011;46155;52.364;6.580;2022-09-09T18:44:09;19.97;;;18.57;;
60306;SDS011;46155;52.364;6.580;2022-09-09T18:46:37;18.53;;;17.57;;
60306;SDS011;46155;52.364;6.580;2022-09-09T18:49:03;21.60;;;19.73;;
60306;SDS011;46155;52.364;6.580;2022-09-09T18:51:29;20.90;;;19.63;;
60306;SDS011;46155;52.364;6.580;2022-09-09T18:53:58;21.87;;;20.47;;
60306;SDS011;46155;52.364;6.580;2022-09-09T18:56:25;20.63;;;19.43;;
60306;SDS011;46155;52.364;6.580;2022-09-09T18:58:52;22.40;;;20.97;;
60306;SDS011;46155;52.364;6.580;2022-09-09T19:01:19;21.00;;;19.60;;